createdAt,value
2022-09-14T00:01:26.511Z,2.80
2022-09-14T00:04:10.940Z,3.00
2022-09-14T00:06:42.493Z,2.20
2022-09-14T00:09:18.697Z,2.60
2022-09-14T00:11:50.621Z,2.60
2022-09-14T00:14:22.583Z,2.30
2022-09-14T00:16:53.636Z,2.50
2022-09-14T00:19:27.888Z,2.80
2022-09-14T00:22:00.505Z,2.60
2022-09-14T00:24:32.647Z,3.30
2022-09-14T00:27:03.823Z,3.40
2022-09-14T00:29:35.064Z,3.00
2022-09-14T00:32:07.089Z,2.70
2022-09-14T00:34:38.103Z,3.00
2022-09-14T00:37:12.269Z,3.00
2022-09-14T00:39:43.933Z,3.20
2022-09-14T00:42:19.646Z,3.90
2022-09-14T00:45:08.439Z,2.80
2022-09-14T00:50:13.151Z,3.00
2022-09-14T00:52:47.304Z,3.00
2022-09-14T00:55:24.911Z,3.20
2022-09-14T00:57:56.742Z,3.30
2022-09-14T01:00:29.867Z,3.30
2022-09-14T01:03:02.045Z,3.30
2022-09-14T01:05:46.507Z,3.20
2022-09-14T01:08:33.416Z,3.20
2022-09-14T01:11:26.664Z,3.70
2022-09-14T01:14:11.544Z,3.40
2022-09-14T01:16:49.122Z,3.30
2022-09-14T01:19:29.688Z,3.40
2022-09-14T01:22:11.096Z,3.30
2022-09-14T01:24:47.843Z,3.40
2022-09-14T01:27:32.521Z,3.60
2022-09-14T01:30:10.774Z,4.20
2022-09-14T01:32:54.238Z,4.30
2022-09-14T01:35:31.339Z,3.90
2022-09-14T01:38:06.988Z,4.40
2022-09-14T01:40:41.498Z,3.80
2022-09-14T01:43:17.521Z,4.40
2022-09-14T01:45:51.462Z,5.80
2022-09-14T01:48:26.246Z,4.90
2022-09-14T01:51:01.423Z,5.80
2022-09-14T01:56:11.041Z,6.20
2022-09-14T01:58:46.632Z,6.80
2022-09-14T02:01:24.881Z,6.10
2022-09-14T02:04:00.622Z,6.40
2022-09-14T02:06:36.608Z,7.40
2022-09-14T02:09:11.333Z,7.50
2022-09-14T02:11:42.784Z,7.00
2022-09-14T02:14:13.845Z,7.50
2022-09-14T02:16:46.517Z,7.90
2022-09-14T02:19:23.901Z,7.30
2022-09-14T02:21:57.488Z,8.20
2022-09-14T02:24:30.195Z,8.90
2022-09-14T02:27:02.785Z,9.00
2022-09-14T02:29:34.368Z,9.70
2022-09-14T02:32:16.539Z,10.00
2022-09-14T02:34:59.366Z,10.40
2022-09-14T02:37:38.893Z,10.20
2022-09-14T02:40:36.841Z,12.90
2022-09-14T02:43:29.649Z,12.70
2022-09-14T02:46:17.915Z,13.20
2022-09-14T02:48:56.675Z,14.30
2022-09-14T02:51:33.817Z,14.80
2022-09-14T02:54:13.108Z,17.30
2022-09-14T02:56:46.031Z,16.80
2022-09-14T02:59:37.230Z,15.70
2022-09-14T03:02:08.397Z,15.80
2022-09-14T03:04:40.022Z,16.40
2022-09-14T03:07:21.990Z,15.40
2022-09-14T03:09:53.163Z,17.00
2022-09-14T03:12:24.263Z,17.10
2022-09-14T03:14:57.556Z,16.40
2022-09-14T03:17:28.579Z,16.80
2022-09-14T03:19:59.836Z,16.30
2022-09-14T03:22:30.867Z,18.80
2022-09-14T03:25:02.018Z,19.30
2022-09-14T03:27:33.086Z,20.90
2022-09-14T03:30:07.485Z,18.10
2022-09-14T03:32:41.170Z,19.60
2022-09-14T03:35:33.345Z,18.40
2022-09-14T03:38:04.857Z,18.90
2022-09-14T03:40:36.049Z,20.00
2022-09-14T03:43:07.005Z,20.10
2022-09-14T03:45:39.737Z,20.30
2022-09-14T03:48:15.726Z,20.20
2022-09-14T03:50:46.715Z,19.20
2022-09-14T03:53:17.540Z,22.30
2022-09-14T03:55:48.521Z,22.40
2022-09-14T03:58:19.519Z,21.50
2022-09-14T04:00:50.783Z,22.30
2022-09-14T04:03:21.946Z,20.20
2022-09-14T04:05:58.853Z,21.00
2022-09-14T04:08:29.968Z,21.70
2022-09-14T04:11:00.893Z,20.80
2022-09-14T04:13:34.625Z,28.60
2022-09-14T04:16:07.618Z,20.30
2022-09-14T04:18:39.873Z,21.20
2022-09-14T04:21:15.147Z,20.10
2022-09-14T04:26:37.131Z,18.10
2022-09-14T04:29:09.215Z,19.80
2022-09-14T04:31:40.632Z,21.40
2022-09-14T04:34:16.284Z,20.90
2022-09-14T04:36:47.558Z,22.60
2022-09-14T04:39:46.761Z,21.50
2022-09-14T04:42:18.843Z,20.50
2022-09-14T04:44:52.456Z,19.60
2022-09-14T04:47:28.092Z,19.50
2022-09-14T04:49:59.427Z,20.10
2022-09-14T04:52:33.522Z,20.10
2022-09-14T04:55:05.091Z,22.50
2022-09-14T04:57:46.821Z,24.10
2022-09-14T05:00:38.833Z,22.40
2022-09-14T05:03:12.943Z,18.40
2022-09-14T05:06:06.524Z,17.50
2022-09-14T05:09:00.207Z,17.30
2022-09-14T05:11:34.079Z,17.30
2022-09-14T05:14:14.759Z,16.10
2022-09-14T05:16:46.932Z,15.30
2022-09-14T05:19:19.242Z,15.90
2022-09-14T05:21:50.472Z,18.10
2022-09-14T05:24:22.213Z,16.00
2022-09-14T05:27:00.103Z,15.50
2022-09-14T05:29:32.835Z,16.30
2022-09-14T05:32:04.428Z,15.10
2022-09-14T05:34:36.082Z,16.50
2022-09-14T05:37:07.531Z,15.40
2022-09-14T05:39:39.819Z,16.00
2022-09-14T05:42:14.447Z,15.80
2022-09-14T05:44:45.891Z,14.10
2022-09-14T05:47:17.137Z,14.80
2022-09-14T05:49:48.629Z,14.60
2022-09-14T05:52:21.913Z,15.50
2022-09-14T05:55:13.501Z,15.50
2022-09-14T05:57:51.933Z,16.00
2022-09-14T06:00:23.645Z,15.80
2022-09-14T06:02:55.903Z,16.70
2022-09-14T06:05:28.319Z,17.40
2022-09-14T06:07:59.606Z,19.40
2022-09-14T06:10:30.914Z,19.40
2022-09-14T06:13:03.691Z,20.50
2022-09-14T06:15:36.013Z,19.80
2022-09-14T06:18:07.395Z,21.00
2022-09-14T06:20:41.248Z,21.40
2022-09-14T06:23:12.568Z,22.10
2022-09-14T06:25:44.638Z,22.90
2022-09-14T06:28:15.927Z,22.90
2022-09-14T06:30:47.621Z,21.30
2022-09-14T06:33:22.062Z,23.40
2022-09-14T06:36:00.766Z,22.50
2022-09-14T06:38:32.449Z,21.00
2022-09-14T06:41:06.438Z,20.60
2022-09-14T06:43:52.130Z,19.20
2022-09-14T06:46:25.329Z,18.20
2022-09-14T06:48:59.473Z,18.20
2022-09-14T06:51:32.935Z,18.90
2022-09-14T06:54:04.211Z,19.00
2022-09-14T06:56:48.787Z,19.60
2022-09-14T06:59:20.403Z,16.40
2022-09-14T07:01:53.365Z,17.80
2022-09-14T07:04:25.362Z,18.40
2022-09-14T07:06:56.590Z,17.30
2022-09-14T07:09:28.028Z,17.20
2022-09-14T07:11:59.115Z,17.40
2022-09-14T07:14:32.442Z,17.00
2022-09-14T07:17:26.521Z,17.10
2022-09-14T07:19:57.860Z,16.40
2022-09-14T07:22:28.996Z,16.50
2022-09-14T07:25:00.062Z,15.70
2022-09-14T07:27:39.948Z,14.90
2022-09-14T07:30:12.680Z,15.90
2022-09-14T07:32:49.844Z,14.30
2022-09-14T07:35:20.866Z,14.30
2022-09-14T07:38:12.248Z,14.70
2022-09-14T07:40:46.106Z,12.80
2022-09-14T07:43:17.416Z,13.30
2022-09-14T07:45:48.608Z,11.40
2022-09-14T07:48:20.929Z,10.90
2022-09-14T07:51:02.391Z,11.10
2022-09-14T07:53:33.896Z,11.60
2022-09-14T07:56:08.808Z,9.90
2022-09-14T07:59:23.862Z,9.90
2022-09-14T08:01:54.972Z,7.90
2022-09-14T08:04:26.158Z,8.70
2022-09-14T08:06:58.047Z,8.20
2022-09-14T08:09:29.374Z,8.90
2022-09-14T08:12:00.749Z,7.60
2022-09-14T08:14:31.823Z,7.70
2022-09-14T08:17:03.016Z,7.70
2022-09-14T08:19:34.134Z,7.10
2022-09-14T08:22:05.921Z,8.50
2022-09-14T08:24:37.196Z,7.50
2022-09-14T08:27:09.230Z,6.60
2022-09-14T08:29:40.793Z,7.20
2022-09-14T08:32:14.146Z,8.00
2022-09-14T08:34:45.118Z,7.40
2022-09-14T08:37:16.142Z,5.90
2022-09-14T08:39:51.426Z,5.80
2022-09-14T08:42:25.778Z,5.90
2022-09-14T08:45:00.269Z,5.60
2022-09-14T08:47:34.839Z,4.60
2022-09-14T08:50:13.726Z,5.20
2022-09-14T08:52:48.214Z,5.60
2022-09-14T08:55:38.993Z,5.10
2022-09-14T08:58:21.443Z,5.20
2022-09-14T09:04:25.017Z,4.60
2022-09-14T09:07:05.740Z,5.30
2022-09-14T09:09:44.882Z,4.90
2022-09-14T09:12:19.359Z,5.90
2022-09-14T09:14:54.631Z,4.40
2022-09-14T09:17:32.188Z,6.00
2022-09-14T09:20:11.013Z,5.50
2022-09-14T09:22:48.933Z,5.50
2022-09-14T09:25:25.078Z,5.90
2022-09-14T09:27:57.735Z,6.10
2022-09-14T09:30:29.944Z,6.20
2022-09-14T09:33:01.453Z,5.60
2022-09-14T09:35:46.436Z,5.70
2022-09-14T09:38:26.145Z,5.10
2022-09-14T09:41:03.541Z,5.20
2022-09-14T09:43:48.963Z,5.70
2022-09-14T09:46:23.066Z,5.00
2022-09-14T09:48:54.445Z,5.50
2022-09-14T09:51:32.044Z,4.40
2022-09-14T09:54:08.902Z,3.80
2022-09-14T09:56:42.807Z,5.10
2022-09-14T09:59:31.886Z,4.50
2022-09-14T10:02:21.772Z,4.10
2022-09-14T10:05:05.979Z,4.40
2022-09-14T10:08:13.115Z,4.00
2022-09-14T10:10:45.968Z,4.40
2022-09-14T10:13:29.074Z,4.90
2022-09-14T10:16:14.859Z,4.70
2022-09-14T10:19:03.696Z,5.10
2022-09-14T10:21:37.880Z,5.70
2022-09-14T10:24:26.747Z,5.00
2022-09-14T10:27:00.597Z,5.60
2022-09-14T10:29:40.509Z,5.40
2022-09-14T10:32:25.577Z,4.80
2022-09-14T10:34:59.673Z,4.70
2022-09-14T10:37:40.321Z,4.50
2022-09-14T10:41:14.036Z,4.10
2022-09-14T10:48:20.413Z,4.60
2022-09-14T10:51:06.882Z,4.10
2022-09-14T10:53:47.408Z,4.00
2022-09-14T10:56:25.219Z,4.60
2022-09-14T10:59:27.236Z,4.50
2022-09-14T11:02:29.794Z,3.90
2022-09-14T11:05:16.389Z,3.70
2022-09-14T11:08:05.864Z,3.70
2022-09-14T11:10:44.350Z,3.10
2022-09-14T11:13:48.241Z,4.00
2022-09-14T11:17:05.502Z,3.30
2022-09-14T11:19:55.145Z,3.60
2022-09-14T11:22:38.210Z,3.20
2022-09-14T11:25:38.109Z,3.20
2022-09-14T11:28:16.501Z,3.00
2022-09-14T11:30:56.980Z,3.00
2022-09-14T11:33:32.826Z,3.00
2022-09-14T11:36:08.589Z,2.90
2022-09-14T11:38:47.808Z,2.50
2022-09-14T11:41:28.766Z,2.50
2022-09-14T11:44:21.227Z,2.70
2022-09-14T11:47:01.009Z,2.60
2022-09-14T11:49:45.369Z,2.90
2022-09-14T11:52:22.895Z,2.80
2022-09-14T11:55:19.415Z,2.30
2022-09-14T11:57:54.440Z,2.20
2022-09-14T12:01:01.919Z,2.40
2022-09-14T12:04:09.664Z,2.70
2022-09-14T12:06:50.119Z,2.40
2022-09-14T12:09:46.492Z,2.40
2022-09-14T12:12:35.797Z,2.30
2022-09-14T12:15:16.655Z,1.80
2022-09-14T12:17:48.421Z,2.40
2022-09-14T12:20:39.006Z,2.60
2022-09-14T12:23:21.068Z,2.20
2022-09-14T12:26:03.393Z,1.80
2022-09-14T12:28:49.482Z,2.30
2022-09-14T12:32:07.350Z,2.30
2022-09-14T12:34:39.116Z,2.90
2022-09-14T12:37:31.526Z,2.40
2022-09-14T12:40:33.867Z,2.30
2022-09-14T12:43:42.132Z,2.20
2022-09-14T12:46:39.868Z,2.10
2022-09-14T12:49:31.536Z,2.00
2022-09-14T12:52:15.565Z,2.20
2022-09-14T12:55:00.106Z,2.10
2022-09-14T12:57:42.592Z,3.20
2022-09-14T13:00:19.939Z,2.70
2022-09-14T13:03:09.128Z,2.40
2022-09-14T13:05:44.146Z,2.10
2022-09-14T13:08:22.270Z,2.10
2022-09-14T13:11:00.802Z,2.00
2022-09-14T13:13:35.136Z,2.50
2022-09-14T13:16:10.339Z,2.30
2022-09-14T13:18:41.694Z,2.30
2022-09-14T13:21:24.094Z,2.00
2022-09-14T13:23:56.021Z,2.60
2022-09-14T13:26:31.969Z,2.20
2022-09-14T13:29:08.709Z,2.20
2022-09-14T13:31:41.280Z,1.90
2022-09-14T13:34:28.335Z,2.30
2022-09-14T13:37:01.323Z,2.10
2022-09-14T13:39:35.825Z,2.70
2022-09-14T13:42:10.391Z,2.40
2022-09-14T13:45:11.551Z,1.90
2022-09-14T13:47:43.235Z,2.60
2022-09-14T13:50:17.424Z,2.20
2022-09-14T13:53:01.800Z,2.30
2022-09-14T13:55:47.526Z,2.30
2022-09-14T13:58:24.381Z,2.20
2022-09-14T14:01:00.303Z,2.30
2022-09-14T14:03:38.425Z,2.30
2022-09-14T14:06:24.291Z,2.60
2022-09-14T14:09:44.265Z,2.40
2022-09-14T14:12:25.748Z,2.70
2022-09-14T14:14:59.426Z,2.30
2022-09-14T14:17:41.236Z,2.60
2022-09-14T14:20:37.074Z,2.20
2022-09-14T14:26:18.912Z,2.40
2022-09-14T14:28:51.073Z,2.60
2022-09-14T14:31:26.393Z,2.40
2022-09-14T14:33:58.997Z,2.70
2022-09-14T14:37:43.215Z,2.50
2022-09-14T14:40:21.916Z,2.80
2022-09-14T14:42:53.334Z,2.50
2022-09-14T14:45:26.572Z,2.40
2022-09-14T14:48:02.378Z,2.30
2022-09-14T14:50:38.551Z,2.50
2022-09-14T14:53:10.303Z,2.50
2022-09-14T14:56:02.267Z,2.60
2022-09-14T14:58:43.515Z,2.40
2022-09-14T15:01:20.189Z,2.70
2022-09-14T15:07:55.172Z,2.20
2022-09-14T15:10:29.041Z,2.60
2022-09-14T15:13:00.415Z,2.40
2022-09-14T15:15:31.332Z,2.20
2022-09-14T15:18:04.754Z,2.60
2022-09-14T15:20:38.251Z,2.60
2022-09-14T15:23:10.076Z,2.40
2022-09-14T15:25:41.102Z,2.30
2022-09-14T15:28:12.148Z,2.70
2022-09-14T15:30:43.311Z,2.80
2022-09-14T15:33:14.425Z,2.70
2022-09-14T15:35:45.769Z,2.80
2022-09-14T15:38:17.175Z,2.20
2022-09-14T15:40:49.213Z,2.30
2022-09-14T15:43:20.571Z,2.70
2022-09-14T15:45:52.856Z,2.50
2022-09-14T15:48:24.182Z,5.10
2022-09-14T15:51:00.790Z,3.50
2022-09-14T15:53:31.977Z,2.80
2022-09-14T15:56:03.450Z,3.10
2022-09-14T15:58:34.886Z,2.60
2022-09-14T16:01:11.211Z,3.00
2022-09-14T16:03:42.863Z,2.60
2022-09-14T16:06:15.093Z,2.70
2022-09-14T16:08:46.185Z,2.70
2022-09-14T16:11:17.094Z,2.30
2022-09-14T16:13:50.570Z,3.20
2022-09-14T16:16:22.901Z,2.80
2022-09-14T16:18:54.065Z,2.70
2022-09-14T16:21:28.634Z,2.90
2022-09-14T16:24:03.859Z,3.00
2022-09-14T16:26:37.283Z,3.30
2022-09-14T16:29:12.306Z,2.90
2022-09-14T16:34:17.807Z,2.80
2022-09-14T16:36:49.810Z,2.60
2022-09-14T16:39:23.627Z,2.70
2022-09-14T16:41:55.872Z,2.80
2022-09-14T16:44:29.100Z,2.70
2022-09-14T16:47:00.711Z,3.00
2022-09-14T16:49:33.740Z,3.50
2022-09-14T16:52:05.567Z,2.80
2022-09-14T16:54:36.533Z,3.10
2022-09-14T16:57:08.696Z,3.00
2022-09-14T16:59:39.993Z,3.10
2022-09-14T17:02:13.081Z,2.70
2022-09-14T17:04:44.193Z,3.00
2022-09-14T17:07:15.267Z,2.70
2022-09-14T17:09:46.182Z,2.70
2022-09-14T17:12:17.307Z,2.90
2022-09-14T17:14:48.496Z,3.50
2022-09-14T17:17:19.564Z,3.20
2022-09-14T17:19:50.918Z,3.20
2022-09-14T17:22:21.840Z,3.00
2022-09-14T17:24:53.192Z,3.80
2022-09-14T17:27:24.297Z,4.10
2022-09-14T17:29:55.150Z,4.20
2022-09-14T17:32:28.544Z,4.30
2022-09-14T17:34:59.969Z,3.60
2022-09-14T17:37:31.133Z,3.90
2022-09-14T17:40:02.888Z,3.90
2022-09-14T17:42:42.645Z,3.60
2022-09-14T17:45:14.087Z,3.60
2022-09-14T17:47:46.762Z,5.00
2022-09-14T17:50:19.608Z,7.40
2022-09-14T17:52:50.758Z,4.80
2022-09-14T17:55:24.415Z,4.20
2022-09-14T17:57:55.731Z,3.80
2022-09-14T18:00:26.576Z,4.10
2022-09-14T18:02:57.791Z,3.40
2022-09-14T18:05:29.024Z,3.00
2022-09-14T18:08:00.293Z,4.00
2022-09-14T18:10:32.183Z,4.40
2022-09-14T18:13:04.307Z,4.20
2022-09-14T18:15:39.779Z,4.50
2022-09-14T18:18:13.588Z,4.60
2022-09-14T18:20:44.424Z,4.50
2022-09-14T18:23:15.321Z,4.80
2022-09-14T18:25:46.530Z,3.70
2022-09-14T18:28:19.400Z,4.30
2022-09-14T18:30:50.427Z,4.70
2022-09-14T18:33:21.493Z,3.80
2022-09-14T18:35:58.042Z,4.30
2022-09-14T18:38:30.173Z,4.20
2022-09-14T18:41:07.297Z,5.00
2022-09-14T18:43:38.885Z,5.00
2022-09-14T18:46:10.856Z,5.20
2022-09-14T18:48:43.951Z,5.70
2022-09-14T18:51:15.655Z,5.10
2022-09-14T18:53:46.604Z,4.30
2022-09-14T18:56:19.506Z,5.30
2022-09-14T18:58:50.400Z,5.20
2022-09-14T19:01:21.420Z,5.70
2022-09-14T19:03:53.949Z,10.60
2022-09-14T19:06:25.668Z,7.10
2022-09-14T19:09:04.724Z,5.10
2022-09-14T19:11:36.572Z,5.30
2022-09-14T19:14:14.605Z,4.10
2022-09-14T19:16:45.809Z,4.90
2022-09-14T19:19:18.001Z,4.60
2022-09-14T19:21:49.050Z,5.00
2022-09-14T19:24:20.850Z,6.30
2022-09-14T19:26:52.957Z,7.30
2022-09-14T19:29:25.755Z,10.00
2022-09-14T19:31:57.449Z,8.30
2022-09-14T19:34:30.451Z,6.70
2022-09-14T19:37:01.292Z,7.10
2022-09-14T19:39:32.402Z,6.30
2022-09-14T19:42:03.912Z,6.30
2022-09-14T19:44:35.048Z,6.90
2022-09-14T19:47:11.661Z,6.30
2022-09-14T19:49:43.102Z,5.90
2022-09-14T19:52:14.013Z,5.40
2022-09-14T19:54:44.987Z,5.50
2022-09-14T19:57:15.845Z,5.90
2022-09-14T19:59:46.719Z,5.30
2022-09-14T20:02:17.605Z,5.20
2022-09-14T20:04:48.692Z,5.20
2022-09-14T20:07:20.159Z,5.00
2022-09-14T20:09:51.241Z,4.90
2022-09-14T20:12:22.085Z,6.30
2022-09-14T20:14:52.912Z,5.70
2022-09-14T20:17:23.938Z,5.90
2022-09-14T20:19:55.035Z,5.20
2022-09-14T20:22:26.069Z,5.20
2022-09-14T20:24:57.265Z,6.80
2022-09-14T20:27:28.428Z,5.70
2022-09-14T20:29:59.189Z,6.30
2022-09-14T20:32:31.408Z,6.30
2022-09-14T20:35:02.314Z,5.80
2022-09-14T20:37:33.146Z,5.80
2022-09-14T20:40:04.710Z,5.60
2022-09-14T20:42:35.559Z,5.90
2022-09-14T20:45:07.567Z,6.40
2022-09-14T20:47:38.459Z,5.20
2022-09-14T20:50:11.167Z,5.90
2022-09-14T20:52:42.029Z,6.20
2022-09-14T20:55:13.810Z,5.70
2022-09-14T20:57:44.657Z,6.00
2022-09-14T21:00:17.584Z,11.00
2022-09-14T21:02:53.483Z,15.60
2022-09-14T21:05:24.335Z,12.50
2022-09-14T21:07:57.129Z,14.00
2022-09-14T21:10:29.523Z,14.70
2022-09-14T21:13:00.651Z,9.00
2022-09-14T21:15:32.576Z,8.00
2022-09-14T21:18:03.859Z,6.30
2022-09-14T21:20:38.389Z,7.20
2022-09-14T21:23:09.656Z,6.00
2022-09-14T21:25:40.592Z,6.40
2022-09-14T21:28:13.699Z,6.30
2022-09-14T21:30:44.587Z,5.90
2022-09-14T21:33:15.528Z,5.60
2022-09-14T21:35:46.445Z,6.90
2022-09-14T21:38:17.623Z,6.60
2022-09-14T21:40:48.437Z,8.10
2022-09-14T21:43:19.260Z,7.50
2022-09-14T21:45:50.624Z,6.80
2022-09-14T21:48:21.779Z,8.40
2022-09-14T21:51:01.561Z,31.30
2022-09-14T21:53:33.291Z,10.70
2022-09-14T21:56:05.355Z,7.30
2022-09-14T21:58:36.714Z,7.00
2022-09-14T22:01:08.288Z,7.40
2022-09-14T22:03:40.077Z,7.90
2022-09-14T22:06:16.344Z,7.40
2022-09-14T22:08:48.233Z,7.10
2022-09-14T22:11:23.241Z,6.90
2022-09-14T22:13:57.406Z,7.40
2022-09-14T22:16:29.981Z,7.00
2022-09-14T22:19:04.297Z,7.60
2022-09-14T22:21:38.275Z,16.50
2022-09-14T22:24:12.738Z,18.50
2022-09-14T22:26:43.743Z,11.30
2022-09-14T22:29:15.626Z,8.10
2022-09-14T22:31:47.740Z,7.50
2022-09-14T22:34:21.302Z,8.30
2022-09-14T22:36:52.137Z,7.10
2022-09-14T22:39:23.352Z,6.30
2022-09-14T22:41:54.537Z,6.20
2022-09-14T22:44:25.540Z,7.60
2022-09-14T22:46:56.972Z,6.90
2022-09-14T22:49:28.312Z,6.50
2022-09-14T22:51:59.400Z,7.30
2022-09-14T22:54:30.518Z,7.60
2022-09-14T22:57:01.513Z,6.60
2022-09-14T22:59:32.785Z,6.60
2022-09-14T23:02:03.777Z,6.50
2022-09-14T23:04:34.338Z,7.60
2022-09-14T23:07:07.414Z,6.30
2022-09-14T23:09:39.353Z,6.50
2022-09-14T23:12:10.332Z,5.90
2022-09-14T23:14:41.192Z,6.30
2022-09-14T23:17:13.136Z,6.90
2022-09-14T23:19:43.975Z,6.90
2022-09-14T23:22:14.785Z,6.90
2022-09-14T23:24:45.728Z,7.00
2022-09-14T23:27:16.901Z,7.20
2022-09-14T23:29:47.718Z,6.70
2022-09-14T23:32:18.535Z,6.80
2022-09-14T23:34:51.218Z,8.60
2022-09-14T23:37:22.100Z,8.30
2022-09-14T23:39:52.931Z,7.70
2022-09-14T23:42:23.727Z,6.80
2022-09-14T23:44:54.543Z,6.50
2022-09-14T23:47:25.551Z,7.10
2022-09-14T23:49:56.486Z,7.10
2022-09-14T23:52:27.565Z,7.30
2022-09-14T23:54:58.449Z,6.30
2022-09-14T23:57:29.305Z,6.70
